sensor_id;sensor_type;location;lat;lon;timestamp;pressure;altitude;pressure_sealevel;temperature;humidity
66398;BME280;54877;51.504;3.894;2023-12-29T00:00:24;100805.31;;;12.04;72.11
66398;BME280;54877;51.504;3.894;2023-12-29T00:02:49;100798.13;;;12.06;72.21
66398;BME280;54877;51.504;3.894;2023-12-29T00:05:15;100810.63;;;12.04;72.14
66398;BME280;54877;51.504;3.894;2023-12-29T00:07:40;100815.16;;;12.02;72.17
66398;BME280;54877;51.504;3.894;2023-12-29T00:10:05;100804.38;;;12.05;72.18
66398;BME280;54877;51.504;3.894;2023-12-29T00:12:31;100802.06;;;11.99;72.50
66398;BME280;54877;51.504;3.894;2023-12-29T00:14:57;100817.66;;;11.89;73.21
66398;BME280;54877;51.504;3.894;2023-12-29T00:17:22;100812.41;;;11.88;73.03
66398;BME280;54877;51.504;3.894;2023-12-29T00:19:47;100808.31;;;11.98;72.62
66398;BME280;54877;51.504;3.894;2023-12-29T00:22:12;100811.03;;;11.81;73.39
66398;BME280;54877;51.504;3.894;2023-12-29T00:24:38;100821.06;;;11.91;73.03
66398;BME280;54877;51.504;3.894;2023-12-29T00:27:04;100816.94;;;11.86;73.38
66398;BME280;54877;51.504;3.894;2023-12-29T00:29:29;100808.22;;;11.84;73.23
66398;BME280;54877;51.504;3.894;2023-12-29T00:31:58;100811.75;;;11.84;73.32
66398;BME280;54877;51.504;3.894;2023-12-29T00:34:25;100806.16;;;11.73;74.15
66398;BME280;54877;51.504;3.894;2023-12-29T00:36:51;100803.34;;;11.76;74.33
66398;BME280;54877;51.504;3.894;2023-12-29T00:39:16;100800.78;;;11.74;74.60
66398;BME280;54877;51.504;3.894;2023-12-29T00:41:41;100801.91;;;11.70;74.87
66398;BME280;54877;51.504;3.894;2023-12-29T00:44:07;100797.41;;;11.71;74.86
66398;BME280;54877;51.504;3.894;2023-12-29T00:46:33;100793.84;;;11.72;74.91
66398;BME280;54877;51.504;3.894;2023-12-29T00:48:58;100791.28;;;11.70;74.99
66398;BME280;54877;51.504;3.894;2023-12-29T00:51:24;100794.88;;;11.69;74.89
66398;BME280;54877;51.504;3.894;2023-12-29T00:53:49;100791.47;;;11.50;75.53
66398;BME280;54877;51.504;3.894;2023-12-29T00:56:14;100772.22;;;11.47;75.64
66398;BME280;54877;51.504;3.894;2023-12-29T00:58:40;100794.28;;;11.47;75.61
66398;BME280;54877;51.504;3.894;2023-12-29T01:01:06;100792.56;;;11.46;75.99
66398;BME280;54877;51.504;3.894;2023-12-29T01:03:33;100789.47;;;11.38;76.22
66398;BME280;54877;51.504;3.894;2023-12-29T01:05:59;100779.94;;;11.51;76.13
66398;BME280;54877;51.504;3.894;2023-12-29T01:08:24;100773.69;;;11.52;75.96
66398;BME280;54877;51.504;3.894;2023-12-29T01:10:49;100788.28;;;11.44;76.15
66398;BME280;54877;51.504;3.894;2023-12-29T01:13:15;100772.91;;;11.50;76.05
66398;BME280;54877;51.504;3.894;2023-12-29T01:15:40;100775.47;;;11.52;75.77
66398;BME280;54877;51.504;3.894;2023-12-29T01:18:09;100786.50;;;11.44;76.04
66398;BME280;54877;51.504;3.894;2023-12-29T01:20:35;100781.81;;;11.49;75.70
66398;BME280;54877;51.504;3.894;2023-12-29T01:23:00;100790.34;;;11.54;75.47
66398;BME280;54877;51.504;3.894;2023-12-29T01:25:25;100781.31;;;11.58;75.35
66398;BME280;54877;51.504;3.894;2023-12-29T01:27:51;100783.84;;;11.60;75.23
66398;BME280;54877;51.504;3.894;2023-12-29T01:30:16;100776.16;;;11.55;75.55
66398;BME280;54877;51.504;3.894;2023-12-29T01:32:41;100777.56;;;11.62;75.69
66398;BME280;54877;51.504;3.894;2023-12-29T01:35:07;100779.59;;;11.57;75.80
66398;BME280;54877;51.504;3.894;2023-12-29T01:37:32;100765.06;;;11.64;75.37
66398;BME280;54877;51.504;3.894;2023-12-29T01:39:58;100772.25;;;11.62;75.20
66398;BME280;54877;51.504;3.894;2023-12-29T01:42:23;100772.75;;;11.53;75.39
66398;BME280;54877;51.504;3.894;2023-12-29T01:44:48;100769.66;;;11.61;75.10
66398;BME280;54877;51.504;3.894;2023-12-29T01:47:19;100765.41;;;11.58;74.99
66398;BME280;54877;51.504;3.894;2023-12-29T01:49:46;100764.97;;;11.50;75.32
66398;BME280;54877;51.504;3.894;2023-12-29T01:52:14;100769.59;;;11.62;74.90
66398;BME280;54877;51.504;3.894;2023-12-29T01:54:41;100766.09;;;11.62;74.75
66398;BME280;54877;51.504;3.894;2023-12-29T01:57:07;100772.25;;;11.62;74.61
66398;BME280;54877;51.504;3.894;2023-12-29T01:59:33;100769.41;;;11.65;74.31
66398;BME280;54877;51.504;3.894;2023-12-29T02:02:00;100757.56;;;11.72;74.24
66398;BME280;54877;51.504;3.894;2023-12-29T02:04:27;100766.75;;;11.65;74.39
66398;BME280;54877;51.504;3.894;2023-12-29T02:06:53;100775.31;;;11.55;74.70
66398;BME280;54877;51.504;3.894;2023-12-29T02:09:20;100761.16;;;11.71;74.27
66398;BME280;54877;51.504;3.894;2023-12-29T02:11:46;100774.06;;;11.77;73.87
66398;BME280;54877;51.504;3.894;2023-12-29T02:14:12;100774.66;;;11.83;73.94
66398;BME280;54877;51.504;3.894;2023-12-29T02:19:40;100776.41;;;11.84;73.95
66398;BME280;54877;51.504;3.894;2023-12-29T02:22:09;100782.03;;;11.77;74.19
66398;BME280;54877;51.504;3.894;2023-12-29T02:24:35;100783.94;;;11.75;74.25
66398;BME280;54877;51.504;3.894;2023-12-29T02:27:03;100783.16;;;11.73;74.24
66398;BME280;54877;51.504;3.894;2023-12-29T02:32:36;100781.69;;;11.84;73.75
66398;BME280;54877;51.504;3.894;2023-12-29T02:35:05;100789.81;;;11.81;73.93
66398;BME280;54877;51.504;3.894;2023-12-29T02:37:35;100774.66;;;11.67;74.56
66398;BME280;54877;51.504;3.894;2023-12-29T02:40:02;100780.16;;;11.79;73.86
66398;BME280;54877;51.504;3.894;2023-12-29T02:42:27;100781.53;;;11.87;73.81
66398;BME280;54877;51.504;3.894;2023-12-29T02:44:53;100771.75;;;11.71;74.25
66398;BME280;54877;51.504;3.894;2023-12-29T02:47:18;100778.78;;;11.88;73.70
66398;BME280;54877;51.504;3.894;2023-12-29T02:49:44;100772.56;;;11.73;74.21
66398;BME280;54877;51.504;3.894;2023-12-29T02:52:09;100776.47;;;11.82;73.84
66398;BME280;54877;51.504;3.894;2023-12-29T02:54:35;100784.88;;;11.90;73.88
66398;BME280;54877;51.504;3.894;2023-12-29T02:57:00;100786.34;;;11.96;73.56
66398;BME280;54877;51.504;3.894;2023-12-29T02:59:25;100776.56;;;11.96;73.41
66398;BME280;54877;51.504;3.894;2023-12-29T03:01:51;100780.06;;;11.97;73.28
66398;BME280;54877;51.504;3.894;2023-12-29T03:04:16;100780.78;;;11.85;73.69
66398;BME280;54877;51.504;3.894;2023-12-29T03:06:41;100780.41;;;11.91;73.70
66398;BME280;54877;51.504;3.894;2023-12-29T03:09:07;100784.78;;;11.92;73.60
66398;BME280;54877;51.504;3.894;2023-12-29T03:11:32;100779.06;;;11.84;73.79
66398;BME280;54877;51.504;3.894;2023-12-29T03:13:58;100789.91;;;11.95;73.70
66398;BME280;54877;51.504;3.894;2023-12-29T03:16:23;100784.94;;;11.89;73.78
66398;BME280;54877;51.504;3.894;2023-12-29T03:18:48;100789.50;;;11.87;73.77
66398;BME280;54877;51.504;3.894;2023-12-29T03:21:14;100781.19;;;11.93;73.68
66398;BME280;54877;51.504;3.894;2023-12-29T03:23:39;100780.34;;;11.92;73.57
66398;BME280;54877;51.504;3.894;2023-12-29T03:26:04;100782.38;;;12.03;73.39
66398;BME280;54877;51.504;3.894;2023-12-29T03:28:30;100779.63;;;12.04;73.38
66398;BME280;54877;51.504;3.894;2023-12-29T03:30:55;100773.66;;;12.01;73.43
66398;BME280;54877;51.504;3.894;2023-12-29T03:33:21;100777.50;;;11.95;73.55
66398;BME280;54877;51.504;3.894;2023-12-29T03:35:46;100785.78;;;12.05;73.48
66398;BME280;54877;51.504;3.894;2023-12-29T03:38:12;100781.69;;;11.99;73.37
66398;BME280;54877;51.504;3.894;2023-12-29T03:40:39;100783.06;;;11.91;73.43
66398;BME280;54877;51.504;3.894;2023-12-29T03:43:05;100777.25;;;12.00;73.25
66398;BME280;54877;51.504;3.894;2023-12-29T03:45:30;100774.59;;;12.00;72.80
66398;BME280;54877;51.504;3.894;2023-12-29T03:47:55;100780.16;;;12.11;72.28
66398;BME280;54877;51.504;3.894;2023-12-29T03:50:21;100763.34;;;12.10;71.92
66398;BME280;54877;51.504;3.894;2023-12-29T03:52:46;100775.00;;;12.08;72.04
66398;BME280;54877;51.504;3.894;2023-12-29T03:55:12;100771.06;;;12.15;71.76
66398;BME280;54877;51.504;3.894;2023-12-29T03:57:38;100772.28;;;12.09;71.80
66398;BME280;54877;51.504;3.894;2023-12-29T04:00:03;100767.81;;;12.10;71.76
66398;BME280;54877;51.504;3.894;2023-12-29T04:02:31;100759.34;;;12.03;71.80
66398;BME280;54877;51.504;3.894;2023-12-29T04:04:56;100764.38;;;12.08;71.50
66398;BME280;54877;51.504;3.894;2023-12-29T04:07:22;100755.41;;;12.10;71.58
66398;BME280;54877;51.504;3.894;2023-12-29T04:09:47;100757.88;;;12.13;71.27
66398;BME280;54877;51.504;3.894;2023-12-29T04:12:12;100765.88;;;11.98;71.88
66398;BME280;54877;51.504;3.894;2023-12-29T04:14:37;100771.06;;;11.99;71.80
66398;BME280;54877;51.504;3.894;2023-12-29T04:17:03;100779.31;;;11.79;72.45
66398;BME280;54877;51.504;3.894;2023-12-29T04:19:30;100781.97;;;11.95;71.83
66398;BME280;54877;51.504;3.894;2023-12-29T04:21:55;100780.81;;;11.99;71.43
66398;BME280;54877;51.504;3.894;2023-12-29T04:24:21;100776.56;;;11.96;71.73
66398;BME280;54877;51.504;3.894;2023-12-29T04:26:46;100768.78;;;12.09;71.17
66398;BME280;54877;51.504;3.894;2023-12-29T04:29:11;100767.47;;;12.16;70.96
66398;BME280;54877;51.504;3.894;2023-12-29T04:31:37;100761.22;;;12.17;70.85
66398;BME280;54877;51.504;3.894;2023-12-29T04:34:02;100760.63;;;12.12;70.94
66398;BME280;54877;51.504;3.894;2023-12-29T04:36:27;100766.13;;;12.09;71.09
66398;BME280;54877;51.504;3.894;2023-12-29T04:38:53;100767.63;;;12.13;71.10
66398;BME280;54877;51.504;3.894;2023-12-29T04:41:18;100775.34;;;12.02;71.41
66398;BME280;54877;51.504;3.894;2023-12-29T04:43:43;100772.44;;;12.06;71.60
66398;BME280;54877;51.504;3.894;2023-12-29T04:46:09;100767.63;;;12.13;71.59
66398;BME280;54877;51.504;3.894;2023-12-29T04:48:34;100762.91;;;12.18;71.33
66398;BME280;54877;51.504;3.894;2023-12-29T04:50:59;100761.81;;;12.22;71.34
66398;BME280;54877;51.504;3.894;2023-12-29T04:53:25;100762.16;;;12.16;71.45
66398;BME280;54877;51.504;3.894;2023-12-29T04:55:50;100762.84;;;12.19;71.57
66398;BME280;54877;51.504;3.894;2023-12-29T04:58:15;100769.78;;;12.22;71.65
66398;BME280;54877;51.504;3.894;2023-12-29T05:00:41;100762.16;;;12.16;71.64
66398;BME280;54877;51.504;3.894;2023-12-29T05:03:06;100756.78;;;12.17;71.46
66398;BME280;54877;51.504;3.894;2023-12-29T05:05:31;100753.66;;;12.25;71.51
66398;BME280;54877;51.504;3.894;2023-12-29T05:07:57;100767.88;;;12.24;71.50
66398;BME280;54877;51.504;3.894;2023-12-29T05:10:22;100761.63;;;12.25;71.58
66398;BME280;54877;51.504;3.894;2023-12-29T05:12:47;100754.13;;;12.17;71.82
66398;BME280;54877;51.504;3.894;2023-12-29T05:15:13;100740.47;;;12.23;71.71
66398;BME280;54877;51.504;3.894;2023-12-29T05:17:38;100742.28;;;12.23;71.88
66398;BME280;54877;51.504;3.894;2023-12-29T05:20:05;100741.25;;;12.25;72.01
66398;BME280;54877;51.504;3.894;2023-12-29T05:22:31;100733.13;;;12.13;73.65
66398;BME280;54877;51.504;3.894;2023-12-29T05:24:56;100738.84;;;12.21;74.00
66398;BME280;54877;51.504;3.894;2023-12-29T05:27:25;100744.59;;;12.13;75.13
66398;BME280;54877;51.504;3.894;2023-12-29T05:29:51;100751.00;;;12.25;74.79
66398;BME280;54877;51.504;3.894;2023-12-29T05:32:16;100738.53;;;12.11;75.26
66398;BME280;54877;51.504;3.894;2023-12-29T05:34:41;100738.03;;;12.05;75.41
66398;BME280;54877;51.504;3.894;2023-12-29T05:37:07;100739.75;;;12.06;75.31
66398;BME280;54877;51.504;3.894;2023-12-29T05:39:32;100732.38;;;12.11;75.10
66398;BME280;54877;51.504;3.894;2023-12-29T05:41:57;100729.91;;;12.08;74.96
66398;BME280;54877;51.504;3.894;2023-12-29T05:44:23;100727.59;;;12.02;75.07
66398;BME280;54877;51.504;3.894;2023-12-29T05:46:48;100725.78;;;12.02;75.20
66398;BME280;54877;51.504;3.894;2023-12-29T05:49:13;100725.91;;;12.01;75.19
66398;BME280;54877;51.504;3.894;2023-12-29T05:51:39;100715.00;;;12.05;75.19
66398;BME280;54877;51.504;3.894;2023-12-29T05:54:04;100717.84;;;12.02;75.16
66398;BME280;54877;51.504;3.894;2023-12-29T05:56:30;100713.63;;;12.14;74.84
66398;BME280;54877;51.504;3.894;2023-12-29T05:58:56;100700.34;;;12.14;74.79
66398;BME280;54877;51.504;3.894;2023-12-29T06:01:21;100701.06;;;12.02;75.14
66398;BME280;54877;51.504;3.894;2023-12-29T06:03:46;100703.47;;;12.06;75.05
66398;BME280;54877;51.504;3.894;2023-12-29T06:06:12;100704.66;;;12.01;75.25
66398;BME280;54877;51.504;3.894;2023-12-29T06:08:37;100707.75;;;11.93;75.14
66398;BME280;54877;51.504;3.894;2023-12-29T06:11:03;100707.59;;;11.81;75.59
66398;BME280;54877;51.504;3.894;2023-12-29T06:13:28;100711.53;;;11.89;75.36
66398;BME280;54877;51.504;3.894;2023-12-29T06:15:54;100700.16;;;11.87;75.40
66398;BME280;54877;51.504;3.894;2023-12-29T06:18:20;100692.97;;;11.89;75.29
66398;BME280;54877;51.504;3.894;2023-12-29T06:20:45;100690.13;;;11.92;75.04
66398;BME280;54877;51.504;3.894;2023-12-29T06:23:10;100697.81;;;11.97;74.98
66398;BME280;54877;51.504;3.894;2023-12-29T06:25:36;100698.88;;;11.78;75.61
66398;BME280;54877;51.504;3.894;2023-12-29T06:28:02;100698.34;;;11.88;75.59
66398;BME280;54877;51.504;3.894;2023-12-29T06:30:29;100679.00;;;11.86;75.72
66398;BME280;54877;51.504;3.894;2023-12-29T06:32:54;100675.44;;;11.87;75.76
66398;BME280;54877;51.504;3.894;2023-12-29T06:35:20;100685.00;;;11.89;75.93
66398;BME280;54877;51.504;3.894;2023-12-29T06:37:45;100704.19;;;11.78;76.59
66398;BME280;54877;51.504;3.894;2023-12-29T06:40:10;100691.69;;;11.81;76.78
66398;BME280;54877;51.504;3.894;2023-12-29T06:42:36;100694.69;;;11.74;77.08
66398;BME280;54877;51.504;3.894;2023-12-29T06:45:01;100680.56;;;11.90;76.46
66398;BME280;54877;51.504;3.894;2023-12-29T06:47:27;100700.63;;;11.94;76.35
66398;BME280;54877;51.504;3.894;2023-12-29T06:49:52;100717.69;;;11.90;76.15
66398;BME280;54877;51.504;3.894;2023-12-29T06:52:18;100716.50;;;11.95;75.98
66398;BME280;54877;51.504;3.894;2023-12-29T06:54:43;100717.69;;;11.90;75.89
66398;BME280;54877;51.504;3.894;2023-12-29T06:57:08;100711.00;;;11.98;75.77
66398;BME280;54877;51.504;3.894;2023-12-29T06:59:34;100709.16;;;11.85;76.07
66398;BME280;54877;51.504;3.894;2023-12-29T07:02:00;100716.16;;;11.86;75.98
66398;BME280;54877;51.504;3.894;2023-12-29T07:04:25;100710.66;;;11.89;76.12
66398;BME280;54877;51.504;3.894;2023-12-29T07:06:50;100713.03;;;11.93;75.92
66398;BME280;54877;51.504;3.894;2023-12-29T07:09:16;100715.81;;;11.92;75.76
66398;BME280;54877;51.504;3.894;2023-12-29T07:11:41;100713.03;;;12.09;75.46
66398;BME280;54877;51.504;3.894;2023-12-29T07:14:11;100716.28;;;12.14;75.04
66398;BME280;54877;51.504;3.894;2023-12-29T07:16:37;100718.19;;;12.12;74.95
66398;BME280;54877;51.504;3.894;2023-12-29T07:19:02;100715.75;;;12.07;75.08
66398;BME280;54877;51.504;3.894;2023-12-29T07:21:28;100708.59;;;12.09;74.94
66398;BME280;54877;51.504;3.894;2023-12-29T07:23:53;100713.53;;;12.15;74.57
66398;BME280;54877;51.504;3.894;2023-12-29T07:26:18;100705.84;;;12.11;74.67
66398;BME280;54877;51.504;3.894;2023-12-29T07:28:44;100711.50;;;12.05;74.99
66398;BME280;54877;51.504;3.894;2023-12-29T07:31:09;100712.88;;;12.12;74.54
66398;BME280;54877;51.504;3.894;2023-12-29T07:33:35;100710.78;;;12.17;74.38
66398;BME280;54877;51.504;3.894;2023-12-29T07:36:00;100723.47;;;12.12;74.39
66398;BME280;54877;51.504;3.894;2023-12-29T07:38:25;100715.59;;;12.10;74.51
66398;BME280;54877;51.504;3.894;2023-12-29T07:40:51;100716.81;;;12.05;74.59
66398;BME280;54877;51.504;3.894;2023-12-29T07:43:17;100724.69;;;12.06;74.48
66398;BME280;54877;51.504;3.894;2023-12-29T07:45:42;100722.91;;;11.91;74.76
66398;BME280;54877;51.504;3.894;2023-12-29T07:48:10;100743.50;;;12.02;74.71
66398;BME280;54877;51.504;3.894;2023-12-29T07:50:35;100736.34;;;12.04;74.28
66398;BME280;54877;51.504;3.894;2023-12-29T07:53:01;100734.97;;;11.97;74.62
66398;BME280;54877;51.504;3.894;2023-12-29T07:55:28;100738.31;;;11.85;74.98
66398;BME280;54877;51.504;3.894;2023-12-29T07:57:54;100745.75;;;11.94;74.85
66398;BME280;54877;51.504;3.894;2023-12-29T08:00:19;100738.75;;;11.93;74.68
66398;BME280;54877;51.504;3.894;2023-12-29T08:02:44;100741.66;;;12.04;74.36
66398;BME280;54877;51.504;3.894;2023-12-29T08:05:10;100745.41;;;12.00;74.50
66398;BME280;54877;51.504;3.894;2023-12-29T08:07:36;100749.22;;;12.10;74.27
66398;BME280;54877;51.504;3.894;2023-12-29T08:10:03;100754.13;;;12.02;74.31
66398;BME280;54877;51.504;3.894;2023-12-29T08:12:29;100753.72;;;12.09;73.96
66398;BME280;54877;51.504;3.894;2023-12-29T08:14:55;100762.16;;;12.16;73.87
66398;BME280;54877;51.504;3.894;2023-12-29T08:17:21;100760.47;;;12.15;73.91
66398;BME280;54877;51.504;3.894;2023-12-29T08:19:47;100765.94;;;11.96;74.53
66398;BME280;54877;51.504;3.894;2023-12-29T08:22:12;100760.72;;;12.10;74.29
66398;BME280;54877;51.504;3.894;2023-12-29T08:24:39;100771.41;;;12.09;74.19
66398;BME280;54877;51.504;3.894;2023-12-29T08:27:06;100758.75;;;12.14;74.17
66398;BME280;54877;51.504;3.894;2023-12-29T08:29:31;100767.69;;;12.27;73.92
66398;BME280;54877;51.504;3.894;2023-12-29T08:31:56;100764.28;;;12.25;73.87
66398;BME280;54877;51.504;3.894;2023-12-29T08:34:22;100767.28;;;12.19;74.19
66398;BME280;54877;51.504;3.894;2023-12-29T08:36:47;100767.81;;;12.25;73.98
66398;BME280;54877;51.504;3.894;2023-12-29T08:39:12;100771.50;;;12.23;74.00
66398;BME280;54877;51.504;3.894;2023-12-29T08:41:38;100765.22;;;12.24;73.87
66398;BME280;54877;51.504;3.894;2023-12-29T08:44:04;100775.06;;;12.22;74.09
66398;BME280;54877;51.504;3.894;2023-12-29T08:46:29;100768.84;;;12.23;74.11
66398;BME280;54877;51.504;3.894;2023-12-29T08:48:54;100773.97;;;12.26;73.78
66398;BME280;54877;51.504;3.894;2023-12-29T08:51:20;100776.00;;;12.36;73.62
66398;BME280;54877;51.504;3.894;2023-12-29T08:53:45;100760.84;;;12.38;73.51
66398;BME280;54877;51.504;3.894;2023-12-29T08:56:11;100764.56;;;12.50;73.32
66398;BME280;54877;51.504;3.894;2023-12-29T08:58:40;100774.09;;;12.38;73.36
66398;BME280;54877;51.504;3.894;2023-12-29T09:01:06;100768.50;;;12.43;72.83
66398;BME280;54877;51.504;3.894;2023-12-29T09:03:31;100772.50;;;12.36;72.64
66398;BME280;54877;51.504;3.894;2023-12-29T09:05:57;100771.16;;;12.43;72.31
66398;BME280;54877;51.504;3.894;2023-12-29T09:08:24;100773.25;;;12.38;72.06
66398;BME280;54877;51.504;3.894;2023-12-29T09:10:49;100769.47;;;12.42;71.79
66398;BME280;54877;51.504;3.894;2023-12-29T09:13:14;100764.94;;;12.44;71.31
66398;BME280;54877;51.504;3.894;2023-12-29T09:15:40;100779.53;;;12.51;71.02
66398;BME280;54877;51.504;3.894;2023-12-29T09:18:05;100780.69;;;12.47;71.48
66398;BME280;54877;51.504;3.894;2023-12-29T09:20:31;100773.06;;;12.41;71.34
66398;BME280;54877;51.504;3.894;2023-12-29T09:22:56;100780.63;;;12.33;71.92
66398;BME280;54877;51.504;3.894;2023-12-29T09:25:22;100787.97;;;12.44;71.53
66398;BME280;54877;51.504;3.894;2023-12-29T09:27:48;100788.53;;;12.49;71.25
66398;BME280;54877;51.504;3.894;2023-12-29T09:30:17;100795.84;;;12.45;71.46
66398;BME280;54877;51.504;3.894;2023-12-29T09:32:42;100791.88;;;12.52;71.39
66398;BME280;54877;51.504;3.894;2023-12-29T09:35:08;100791.13;;;12.50;71.45
66398;BME280;54877;51.504;3.894;2023-12-29T09:37:33;100787.78;;;12.47;71.40
66398;BME280;54877;51.504;3.894;2023-12-29T09:39:58;100787.78;;;12.47;71.56
66398;BME280;54877;51.504;3.894;2023-12-29T09:42:24;100793.97;;;12.47;71.35
66398;BME280;54877;51.504;3.894;2023-12-29T09:44:53;100799.44;;;12.44;71.34
66398;BME280;54877;51.504;3.894;2023-12-29T09:47:22;100796.91;;;12.57;71.09
66398;BME280;54877;51.504;3.894;2023-12-29T09:49:48;100797.91;;;12.40;71.22
66398;BME280;54877;51.504;3.894;2023-12-29T09:52:14;100809.19;;;12.59;71.10
66398;BME280;54877;51.504;3.894;2023-12-29T09:54:41;100813.47;;;12.62;71.06
66398;BME280;54877;51.504;3.894;2023-12-29T09:57:08;100814.44;;;12.75;70.63
66398;BME280;54877;51.504;3.894;2023-12-29T09:59:36;100810.34;;;12.69;70.65
66398;BME280;54877;51.504;3.894;2023-12-29T10:02:05;100820.00;;;12.56;70.98
66398;BME280;54877;51.504;3.894;2023-12-29T10:04:39;100822.66;;;12.70;70.66
66398;BME280;54877;51.504;3.894;2023-12-29T10:07:05;100827.41;;;12.65;71.05
66398;BME280;54877;51.504;3.894;2023-12-29T10:09:33;100833.50;;;12.67;71.10
66398;BME280;54877;51.504;3.894;2023-12-29T10:11:59;100828.25;;;12.66;71.09
66398;BME280;54877;51.504;3.894;2023-12-29T10:17:28;100844.16;;;12.81;70.57
66398;BME280;54877;51.504;3.894;2023-12-29T10:23:04;100840.91;;;12.76;70.78
66398;BME280;54877;51.504;3.894;2023-12-29T10:25:33;100838.22;;;12.92;70.24
66398;BME280;54877;51.504;3.894;2023-12-29T10:27:59;100835.47;;;12.93;70.25
66398;BME280;54877;51.504;3.894;2023-12-29T10:30:24;100837.44;;;12.90;70.24
66398;BME280;54877;51.504;3.894;2023-12-29T10:32:51;100841.13;;;12.87;70.45
66398;BME280;54877;51.504;3.894;2023-12-29T10:35:17;100832.00;;;12.77;70.74
66398;BME280;54877;51.504;3.894;2023-12-29T10:37:43;100837.53;;;12.88;70.70
66398;BME280;54877;51.504;3.894;2023-12-29T10:40:08;100845.34;;;12.91;70.62
66398;BME280;54877;51.504;3.894;2023-12-29T10:42:34;100842.34;;;12.82;70.81
66398;BME280;54877;51.504;3.894;2023-12-29T10:45:06;100845.06;;;12.96;70.55
66398;BME280;54877;51.504;3.894;2023-12-29T10:47:33;100849.16;;;13.02;70.58
66398;BME280;54877;51.504;3.894;2023-12-29T10:50:00;100840.94;;;12.90;70.75
66398;BME280;54877;51.504;3.894;2023-12-29T10:52:31;100834.03;;;12.88;70.85
66398;BME280;54877;51.504;3.894;2023-12-29T10:55:07;100841.75;;;13.07;70.53
66398;BME280;54877;51.504;3.894;2023-12-29T10:57:34;100842.19;;;13.15;70.69
66398;BME280;54877;51.504;3.894;2023-12-29T11:00:00;100824.94;;;13.22;70.44
66398;BME280;54877;51.504;3.894;2023-12-29T11:02:26;100833.28;;;13.30;70.34
66398;BME280;54877;51.504;3.894;2023-12-29T11:05:00;100832.59;;;13.26;70.62
66398;BME280;54877;51.504;3.894;2023-12-29T11:07:31;100835.84;;;13.31;70.83
66398;BME280;54877;51.504;3.894;2023-12-29T11:10:04;100845.63;;;13.17;71.63
66398;BME280;54877;51.504;3.894;2023-12-29T11:12:32;100836.09;;;13.13;71.83
66398;BME280;54877;51.504;3.894;2023-12-29T11:14:59;100831.84;;;13.24;71.61
66398;BME280;54877;51.504;3.894;2023-12-29T11:17:27;100830.63;;;13.30;71.70
66398;BME280;54877;51.504;3.894;2023-12-29T11:19:54;100831.19;;;13.35;71.68
66398;BME280;54877;51.504;3.894;2023-12-29T11:22:22;100835.00;;;13.31;72.16
66398;BME280;54877;51.504;3.894;2023-12-29T11:24:51;100836.69;;;13.32;72.19
66398;BME280;54877;51.504;3.894;2023-12-29T11:27:16;100828.81;;;13.30;72.50
66398;BME280;54877;51.504;3.894;2023-12-29T11:29:42;100821.41;;;13.35;72.36
66398;BME280;54877;51.504;3.894;2023-12-29T11:32:11;100816.38;;;13.17;72.84
66398;BME280;54877;51.504;3.894;2023-12-29T11:34:42;100812.00;;;13.30;72.88
66398;BME280;54877;51.504;3.894;2023-12-29T11:39:48;100810.78;;;13.35;73.02
66398;BME280;54877;51.504;3.894;2023-12-29T11:42:31;100808.41;;;13.31;73.11
66398;BME280;54877;51.504;3.894;2023-12-29T11:45:23;100799.28;;;13.35;72.83
66398;BME280;54877;51.504;3.894;2023-12-29T11:47:53;100799.97;;;13.38;72.40
66398;BME280;54877;51.504;3.894;2023-12-29T11:50:27;100799.19;;;13.22;72.59
66398;BME280;54877;51.504;3.894;2023-12-29T11:53:03;100796.63;;;13.21;74.25
66398;BME280;54877;51.504;3.894;2023-12-29T11:55:36;100803.66;;;13.22;74.75
66398;BME280;54877;51.504;3.894;2023-12-29T11:58:24;100806.78;;;13.14;75.66
66398;BME280;54877;51.504;3.894;2023-12-29T12:00:50;100797.19;;;13.26;75.32
66398;BME280;54877;51.504;3.894;2023-12-29T12:03:18;100798.34;;;13.22;76.00
66398;BME280;54877;51.504;3.894;2023-12-29T12:05:51;100792.84;;;13.25;75.74
66398;BME280;54877;51.504;3.894;2023-12-29T12:08:34;100786.09;;;13.33;75.59
66398;BME280;54877;51.504;3.894;2023-12-29T12:13:55;100772.13;;;13.16;75.16
66398;BME280;54877;51.504;3.894;2023-12-29T12:19:12;100761.19;;;13.34;74.43
66398;BME280;54877;51.504;3.894;2023-12-29T12:21:38;100757.41;;;13.38;73.75
66398;BME280;54877;51.504;3.894;2023-12-29T12:24:04;100765.88;;;13.31;73.79
66398;BME280;54877;51.504;3.894;2023-12-29T12:26:33;100763.41;;;13.42;73.12
66398;BME280;54877;51.504;3.894;2023-12-29T12:28:59;100771.84;;;13.34;73.31
66398;BME280;54877;51.504;3.894;2023-12-29T12:31:25;100764.22;;;13.42;73.29
66398;BME280;54877;51.504;3.894;2023-12-29T12:33:58;100738.88;;;13.37;73.18
66398;BME280;54877;51.504;3.894;2023-12-29T12:36:25;100755.31;;;13.29;73.40
66398;BME280;54877;51.504;3.894;2023-12-29T12:38:57;100761.50;;;13.16;73.96
66398;BME280;54877;51.504;3.894;2023-12-29T12:41:24;100749.53;;;13.09;74.84
66398;BME280;54877;51.504;3.894;2023-12-29T12:44:03;100758.09;;;13.14;75.40
66398;BME280;54877;51.504;3.894;2023-12-29T12:46:35;100751.78;;;13.01;77.15
66398;BME280;54877;51.504;3.894;2023-12-29T12:49:06;100733.59;;;13.09;77.50
66398;BME280;54877;51.504;3.894;2023-12-29T12:51:31;100756.53;;;13.10;77.70
66398;BME280;54877;51.504;3.894;2023-12-29T12:53:58;100752.94;;;13.11;77.31
66398;BME280;54877;51.504;3.894;2023-12-29T12:56:24;100755.00;;;13.06;77.22
66398;BME280;54877;51.504;3.894;2023-12-29T12:58:56;100751.09;;;12.97;76.83
66398;BME280;54877;51.504;3.894;2023-12-29T13:01:23;100755.56;;;12.96;77.05
66398;BME280;54877;51.504;3.894;2023-12-29T13:03:49;100743.81;;;13.15;76.45
66398;BME280;54877;51.504;3.894;2023-12-29T13:06:15;100754.50;;;12.99;76.56